KNYG/NYG METAR and TAF weather

Enter ICAO airport designator
Station Type Date Time Source
KNYG METAR 2019/08/24 19:56 UTC NOAA

KNYG 241956Z AUTO 07005KT 10SM BKN075 27/11 A3016 RMK AO2 SLP213 T02670106 $


Station Type Date Time Source
KNYG Decoded METAR 2019/08/24 19:56 UTC NOAA

Station name not available
Aug 24, 2019 - 03:56 PM EDT / 2019.08.24 1956 UTC
Wind: from the ENE (070 degrees) at 6 MPH (5 KT):0
Visibility: 10 mile(s):0
Sky conditions: mostly cloudy
Temperature: 80.1 F (26.7 C)
Dew Point: 51.1 F (10.6 C)
Relative Humidity: 36%
Pressure (altimeter): 30.16 in. Hg (1021 hPa)
ob: KNYG 241956Z AUTO 07005KT 10SM BKN075 27/11 A3016 RMK AO2 SLP213 T02670106
cycle: 20

Station Type Date Time Source
KNYG TAF 2019/08/23 18:57 UTC NOAA

TAF
AMD KNYG 2318/2415 VRB06KT 9000 RA BR BKN015 BKN025 QNH3000INS
BECMG 2318/2320 35009KT 1600 +RA BR BKN009 BKN015 QNH3002INS
FM240400 VRB06KT 9000 BR FEW015 SCT030 BKN050 QNH3009INS
FM241200 36008KT 9999 SCT030 SCT050 QNH3015INS T28/2315Z T18/2411Z
AMD 1853

Example: see airport list